CheckWX is a tool to help pilots better visualize weather data.  It is not intended as a substitute for an official pre-flight weather briefing.

03:44:31 UTC

KRIL TAF
Rifle Garfield County Airport
Rifle, Colorado, USA
KRIL 040535Z 0406/0506 15005KT P6SM FEW120 FEW200 FM040900 VRB03KT P6SM FEW120 FEW200 FM042100 30009KT P6SM FEW100 SCT120 FM050200 10007KT P6SM FEW090 SCT200

Jul-4@
06:00 UTC

Jul-4 @ 06:00 UTC

Jul-4@
09:00 UTC

Jul-4 @ 09:00 UTC

TAF KRIL 040535Z 0406/0506 15005KT P6SM FEW120 FEW200

Expired

Wind
  • 150° at 5 KTS
Cloud Levels
  • Few at 12,000' AGL
  • Few at 20,000' AGL

Jul-4@
09:00 UTC

Jul-4 @ 09:00 UTC

Jul-4@
21:00 UTC

Jul-4 @ 21:00 UTC

FM040900 VRB03KT P6SM FEW120 FEW200

Expired

Wind
  • Variable at 3 KTS
Cloud Levels
  • Few at 12,000' AGL
  • Few at 20,000' AGL

Jul-4@
21:00 UTC

Jul-4 @ 21:00 UTC

Jul-5@
02:00 UTC

Jul-5 @ 02:00 UTC

FM042100 30009KT P6SM FEW100 SCT120

Expired

Wind
  • 300° at 9 KTS
Cloud Levels
  • Few at 10,000' AGL
  • Scattered at 12,000' AGL

Jul-5@
02:00 UTC

Jul-5 @ 02:00 UTC

Jul-5@
06:00 UTC

Jul-5 @ 06:00 UTC

FM050200 10007KT P6SM FEW090 SCT200

From

From Standard forecast or significant change

Wind
  • 100° at 7 KTS
Cloud Levels
  • Few at 9,000' AGL
  • Scattered at 20,000' AGL